createdAt,value
2018-07-09T00:01:29.643Z,19.33
2018-07-09T00:02:29.585Z,19.34
2018-07-09T00:04:22.559Z,19.33
2018-07-09T00:05:22.520Z,19.30
2018-07-09T00:07:15.345Z,19.27
2018-07-09T00:08:15.322Z,19.18
2018-07-09T00:10:08.294Z,19.24
2018-07-09T00:11:08.254Z,19.26
2018-07-09T00:13:01.069Z,19.19
2018-07-09T00:14:01.026Z,19.09
2018-07-09T00:15:54.023Z,19.08
2018-07-09T00:16:53.959Z,19.02
2018-07-09T00:18:46.854Z,19.04
2018-07-09T00:19:46.814Z,19.09
2018-07-09T00:21:39.659Z,18.92
2018-07-09T00:22:39.625Z,18.88
2018-07-09T00:24:32.569Z,18.92
2018-07-09T00:25:32.539Z,18.81
2018-07-09T00:27:25.530Z,18.81
2018-07-09T00:28:25.474Z,18.83
2018-07-09T00:30:18.351Z,18.83
2018-07-09T00:31:18.303Z,18.81
2018-07-09T00:33:11.114Z,18.80
2018-07-09T00:34:11.080Z,18.75
2018-07-09T00:36:04.078Z,18.75
2018-07-09T00:37:04.030Z,18.74
2018-07-09T00:38:56.991Z,18.75
2018-07-09T00:39:56.955Z,18.80
2018-07-09T00:41:49.853Z,18.73
2018-07-09T00:42:49.787Z,18.65
2018-07-09T00:44:42.757Z,18.63
2018-07-09T00:45:42.726Z,18.59
2018-07-09T00:47:35.846Z,18.63
2018-07-09T00:48:35.795Z,18.55
2018-07-09T00:50:28.657Z,18.52
2018-07-09T00:51:28.613Z,18.47
2018-07-09T00:53:21.630Z,18.44
2018-07-09T00:54:21.601Z,18.52
2018-07-09T00:56:14.601Z,18.44
2018-07-09T00:57:14.526Z,18.45
2018-07-09T00:59:07.683Z,18.31
2018-07-09T01:00:07.593Z,18.31
2018-07-09T01:02:00.619Z,18.29
2018-07-09T01:03:00.512Z,18.35
2018-07-09T01:04:53.480Z,18.26
2018-07-09T01:05:53.448Z,18.29
2018-07-09T01:07:46.291Z,18.26
2018-07-09T01:08:46.245Z,18.16
2018-07-09T01:10:39.057Z,18.13
2018-07-09T01:11:39.017Z,18.15
2018-07-09T01:13:32.013Z,18.13
2018-07-09T01:14:31.946Z,18.07
2018-07-09T01:16:24.993Z,18.18
2018-07-09T01:17:24.938Z,18.11
2018-07-09T01:19:18.024Z,18.13
2018-07-09T01:20:18.022Z,18.10
2018-07-09T01:22:10.832Z,18.11
2018-07-09T01:23:10.777Z,18.01
2018-07-09T01:25:03.753Z,18.05
2018-07-09T01:26:03.707Z,17.98
2018-07-09T01:27:56.838Z,18.03
2018-07-09T01:28:56.792Z,18.03
2018-07-09T01:30:49.762Z,18.03
2018-07-09T01:31:49.710Z,18.04
2018-07-09T01:33:42.690Z,18.00
2018-07-09T01:34:42.639Z,17.98
2018-07-09T01:36:35.472Z,17.89
2018-07-09T01:37:35.438Z,17.82
2018-07-09T01:39:28.429Z,17.87
2018-07-09T01:40:28.375Z,17.79
2018-07-09T01:42:21.348Z,17.82
2018-07-09T01:43:21.402Z,17.85
2018-07-09T01:45:14.629Z,17.79
2018-07-09T01:46:14.459Z,17.76
2018-07-09T01:48:07.334Z,17.78
2018-07-09T01:49:07.256Z,17.65
2018-07-09T01:51:00.221Z,17.74
2018-07-09T01:52:00.192Z,17.74
2018-07-09T01:53:53.462Z,17.76
2018-07-09T01:54:53.288Z,17.70
2018-07-09T01:56:46.259Z,17.71
2018-07-09T01:57:46.228Z,17.64
2018-07-09T01:59:39.204Z,17.65
2018-07-09T02:00:39.148Z,17.49
2018-07-09T02:02:32.305Z,17.52
2018-07-09T02:03:32.240Z,17.57
2018-07-09T02:05:25.216Z,17.52
2018-07-09T02:06:25.169Z,17.54
2018-07-09T02:08:18.126Z,17.52
2018-07-09T02:09:18.102Z,17.49
2018-07-09T02:11:11.008Z,17.48
2018-07-09T02:12:10.952Z,17.45
2018-07-09T02:14:03.950Z,17.49
2018-07-09T02:15:03.898Z,17.34
2018-07-09T02:16:56.855Z,17.49
2018-07-09T02:17:56.875Z,17.46
2018-07-09T02:19:50.040Z,17.34
2018-07-09T02:20:49.895Z,17.36
2018-07-09T02:22:42.846Z,17.36
2018-07-09T02:23:42.814Z,17.42
2018-07-09T02:25:35.804Z,17.36
2018-07-09T02:26:35.759Z,17.36
2018-07-09T02:28:28.861Z,17.23
2018-07-09T02:29:28.810Z,17.26
2018-07-09T02:31:21.786Z,17.19
2018-07-09T02:32:21.741Z,17.23
2018-07-09T02:34:14.734Z,17.15
2018-07-09T02:35:14.670Z,17.05
2018-07-09T02:37:07.550Z,17.06
2018-07-09T02:38:07.516Z,17.02
2018-07-09T02:40:00.511Z,17.02
2018-07-09T02:41:00.467Z,17.04
2018-07-09T02:42:53.420Z,16.90
2018-07-09T02:43:53.393Z,16.89
2018-07-09T02:45:46.592Z,16.83
2018-07-09T02:46:46.480Z,16.91
2018-07-09T02:48:39.465Z,16.87
2018-07-09T02:49:39.418Z,16.90
2018-07-09T02:51:32.417Z,16.79
2018-07-09T02:52:32.353Z,16.86
2018-07-09T02:54:25.163Z,16.74
2018-07-09T02:55:25.131Z,16.69
2018-07-09T02:57:18.077Z,16.74
2018-07-09T02:58:17.917Z,16.66
2018-07-09T03:00:10.900Z,16.72
2018-07-09T03:01:10.961Z,16.66
2018-07-09T03:03:03.828Z,16.66
2018-07-09T03:04:03.792Z,16.66
2018-07-09T03:05:56.972Z,16.65
2018-07-09T03:06:56.868Z,16.49
2018-07-09T03:08:49.694Z,16.47
2018-07-09T03:09:49.649Z,16.49
2018-07-09T03:11:42.637Z,16.50
2018-07-09T03:12:42.628Z,16.53
2018-07-09T03:14:35.399Z,16.51
2018-07-09T03:15:35.370Z,16.47
2018-07-09T03:17:28.248Z,16.41
2018-07-09T03:18:28.196Z,16.46
2018-07-09T03:20:21.161Z,16.39
2018-07-09T03:21:21.131Z,16.39
2018-07-09T03:23:13.945Z,16.43
2018-07-09T03:24:13.909Z,16.46
2018-07-09T03:26:06.862Z,16.42
2018-07-09T03:27:06.835Z,16.36
2018-07-09T03:28:59.722Z,16.39
2018-07-09T03:29:59.673Z,16.28
2018-07-09T03:31:52.673Z,16.36
2018-07-09T03:32:52.624Z,16.28
2018-07-09T03:34:45.585Z,16.28
2018-07-09T03:35:45.548Z,16.16
2018-07-09T03:37:38.724Z,16.28
2018-07-09T03:38:38.600Z,16.15
2018-07-09T03:40:31.579Z,16.15
2018-07-09T03:41:31.555Z,16.21
2018-07-09T03:43:24.527Z,16.26
2018-07-09T03:44:24.463Z,16.10
2018-07-09T03:46:17.618Z,16.15
2018-07-09T03:47:17.564Z,16.13
2018-07-09T03:49:10.574Z,16.09
2018-07-09T03:50:10.525Z,16.13
2018-07-09T03:52:03.343Z,16.13
2018-07-09T03:53:03.300Z,16.12
2018-07-09T03:54:56.491Z,16.15
2018-07-09T03:55:56.383Z,16.17
2018-07-09T03:57:49.363Z,16.20
2018-07-09T03:58:49.313Z,16.15
2018-07-09T04:00:42.294Z,16.24
2018-07-09T04:01:42.239Z,16.20
2018-07-09T04:03:35.159Z,16.12
2018-07-09T04:04:35.103Z,16.09
2018-07-09T04:06:28.065Z,16.29
2018-07-09T04:07:28.036Z,16.23
2018-07-09T04:09:21.029Z,16.23
2018-07-09T04:10:20.974Z,16.17
2018-07-09T04:12:14.099Z,16.20
2018-07-09T04:13:14.054Z,16.26
2018-07-09T04:15:07.026Z,16.33
2018-07-09T04:16:06.969Z,16.29
2018-07-09T04:17:59.945Z,16.29
2018-07-09T04:18:59.907Z,16.20
2018-07-09T04:20:53.117Z,16.31
2018-07-09T04:21:53.026Z,16.29
2018-07-09T04:23:45.970Z,16.17
2018-07-09T04:24:45.916Z,16.10
2018-07-09T04:26:38.744Z,16.26
2018-07-09T04:27:38.708Z,16.26
2018-07-09T04:29:31.885Z,16.16
2018-07-09T04:30:31.760Z,16.16
2018-07-09T04:32:24.753Z,16.15
2018-07-09T04:33:24.692Z,16.20
2018-07-09T04:35:17.659Z,16.15
2018-07-09T04:36:17.613Z,16.16
2018-07-09T04:38:10.752Z,16.24
2018-07-09T04:39:10.712Z,16.12
2018-07-09T04:41:03.736Z,16.29
2018-07-09T04:42:03.699Z,16.32
2018-07-09T04:43:56.656Z,16.31
2018-07-09T04:44:56.641Z,16.31
2018-07-09T04:46:49.665Z,16.41
2018-07-09T04:47:49.601Z,16.43
2018-07-09T04:49:42.567Z,16.47
2018-07-09T04:50:42.517Z,16.43
2018-07-09T04:52:35.513Z,16.58
2018-07-09T04:53:35.548Z,16.53
2018-07-09T04:55:28.494Z,16.66
2018-07-09T04:56:28.445Z,16.56
2018-07-09T04:58:21.433Z,16.61
2018-07-09T04:59:21.366Z,16.65
2018-07-09T05:01:14.184Z,16.66
2018-07-09T05:02:14.158Z,16.71
2018-07-09T05:04:07.342Z,16.71
2018-07-09T05:05:07.217Z,16.83
2018-07-09T05:07:00.228Z,16.81
2018-07-09T05:08:00.171Z,16.84
2018-07-09T05:09:53.163Z,16.94
2018-07-09T05:10:53.131Z,16.93
2018-07-09T05:12:45.979Z,16.97
2018-07-09T05:13:45.919Z,16.99
2018-07-09T05:15:38.893Z,17.01
2018-07-09T05:16:38.864Z,17.05
2018-07-09T05:18:31.827Z,17.01
2018-07-09T05:19:31.793Z,17.05
2018-07-09T05:21:25.002Z,17.04
2018-07-09T05:22:24.889Z,17.06
2018-07-09T05:24:17.878Z,17.12
2018-07-09T05:25:17.842Z,17.12
2018-07-09T05:27:10.790Z,17.19
2018-07-09T05:28:10.755Z,17.24
2018-07-09T05:30:03.898Z,17.22
2018-07-09T05:31:03.814Z,17.16
2018-07-09T05:32:56.818Z,17.22
2018-07-09T05:33:56.756Z,17.20
2018-07-09T05:35:49.742Z,17.22
2018-07-09T05:36:49.693Z,17.24
2018-07-09T05:38:42.550Z,17.34
2018-07-09T05:39:42.489Z,17.41
2018-07-09T05:41:35.479Z,17.39
2018-07-09T05:42:35.434Z,17.41
2018-07-09T05:44:28.405Z,17.33
2018-07-09T05:45:28.425Z,17.48
2018-07-09T05:47:21.173Z,17.48
2018-07-09T05:48:21.139Z,17.48
2018-07-09T05:50:13.971Z,17.49
2018-07-09T05:51:13.928Z,17.59
2018-07-09T05:53:06.890Z,17.45
2018-07-09T05:54:06.854Z,17.54
2018-07-09T05:56:00.294Z,17.68
2018-07-09T05:56:59.779Z,17.59
2018-07-09T05:58:52.761Z,17.74
2018-07-09T05:59:52.719Z,17.72
2018-07-09T06:01:45.571Z,17.80
2018-07-09T06:02:45.519Z,17.67
2018-07-09T06:04:38.498Z,17.68
2018-07-09T06:05:38.468Z,17.78
2018-07-09T06:07:31.426Z,17.89
2018-07-09T06:08:31.374Z,17.87
2018-07-09T06:10:24.560Z,18.03
2018-07-09T06:11:24.483Z,17.92
2018-07-09T06:13:17.416Z,17.94
2018-07-09T06:14:17.391Z,17.98
2018-07-09T06:16:10.385Z,18.07
2018-07-09T06:17:10.327Z,18.11
2018-07-09T06:19:03.636Z,18.15
2018-07-09T06:20:03.597Z,17.98
2018-07-09T06:21:56.634Z,18.15
2018-07-09T06:22:56.578Z,18.16
2018-07-09T06:24:49.471Z,18.20
2018-07-09T06:25:49.426Z,18.18
2018-07-09T06:27:42.430Z,18.15
2018-07-09T06:28:42.372Z,18.26
2018-07-09T06:30:35.343Z,18.25
2018-07-09T06:31:35.329Z,18.26
2018-07-09T06:33:28.462Z,18.38
2018-07-09T06:34:28.407Z,18.37
2018-07-09T06:36:21.320Z,18.28
2018-07-09T06:37:21.175Z,18.35
2018-07-09T06:39:14.181Z,18.29
2018-07-09T06:40:14.101Z,18.31
2018-07-09T06:42:06.928Z,18.43
2018-07-09T06:43:06.887Z,18.44
2018-07-09T06:44:59.731Z,18.59
2018-07-09T06:45:59.661Z,18.78
2018-07-09T06:47:52.677Z,18.83
2018-07-09T06:48:52.616Z,18.75
2018-07-09T06:50:45.595Z,18.88
2018-07-09T06:51:45.560Z,18.89
2018-07-09T06:53:38.551Z,18.90
2018-07-09T06:54:38.495Z,18.99
2018-07-09T06:56:31.457Z,19.11
2018-07-09T06:57:31.428Z,19.04
2018-07-09T06:59:24.412Z,19.09
2018-07-09T07:00:24.365Z,18.99
2018-07-09T07:02:17.368Z,19.04
2018-07-09T07:03:17.300Z,19.04
2018-07-09T07:05:10.113Z,19.11
2018-07-09T07:06:10.083Z,19.22
2018-07-09T07:08:03.073Z,19.24
2018-07-09T07:09:03.049Z,19.19
2018-07-09T07:10:56.027Z,19.27
2018-07-09T07:11:55.978Z,19.36
2018-07-09T07:13:49.183Z,19.31
2018-07-09T07:14:49.062Z,19.44
2018-07-09T07:16:42.000Z,19.40
2018-07-09T07:17:41.960Z,19.52
2018-07-09T07:19:34.800Z,19.45
2018-07-09T07:20:34.878Z,19.45
2018-07-09T07:22:28.037Z,19.52
2018-07-09T07:23:27.998Z,19.44
2018-07-09T07:25:21.015Z,19.39
2018-07-09T07:26:20.983Z,19.48
2018-07-09T07:28:13.930Z,19.49
2018-07-09T07:29:13.904Z,19.52
2018-07-09T07:31:06.897Z,19.58
2018-07-09T07:32:06.849Z,19.58
2018-07-09T07:33:59.825Z,19.37
2018-07-09T07:34:59.777Z,19.44
2018-07-09T07:36:52.770Z,19.55
2018-07-09T07:37:52.729Z,19.69
2018-07-09T07:39:45.573Z,19.73
2018-07-09T07:40:45.513Z,19.69
2018-07-09T07:42:38.489Z,19.59
2018-07-09T07:43:38.458Z,19.69
2018-07-09T07:45:31.444Z,19.74
2018-07-09T07:46:31.389Z,19.88
2018-07-09T07:48:24.615Z,20.02
2018-07-09T07:49:24.507Z,19.91
2018-07-09T07:51:17.355Z,20.02
2018-07-09T07:52:17.293Z,19.94
2018-07-09T07:54:10.280Z,20.02
2018-07-09T07:55:10.241Z,20.07
2018-07-09T07:57:03.380Z,19.92
2018-07-09T07:58:03.319Z,19.96
2018-07-09T07:59:56.314Z,20.07
2018-07-09T08:00:56.274Z,20.18
2018-07-09T08:02:49.153Z,20.36
2018-07-09T08:03:49.063Z,20.40
2018-07-09T08:05:42.303Z,20.41
2018-07-09T08:06:42.136Z,20.44
2018-07-09T08:08:35.121Z,20.40
2018-07-09T08:09:35.134Z,20.31
2018-07-09T08:11:47.728Z,20.32
2018-07-09T08:14:21.121Z,20.44
2018-07-09T08:15:21.084Z,20.36
2018-07-09T08:17:14.100Z,20.52
2018-07-09T08:18:14.056Z,20.55
2018-07-09T08:20:07.070Z,20.67
2018-07-09T08:21:07.042Z,20.72
2018-07-09T08:23:00.076Z,20.56
2018-07-09T08:23:59.984Z,20.63
2018-07-09T08:25:52.946Z,20.56
2018-07-09T08:26:52.920Z,20.62
2018-07-09T08:28:45.885Z,20.95
2018-07-09T08:29:45.851Z,21.02
2018-07-09T08:31:38.826Z,21.09
2018-07-09T08:32:38.636Z,20.74
2018-07-09T08:34:31.656Z,21.02
2018-07-09T08:35:31.609Z,21.02
2018-07-09T08:37:24.589Z,21.02
2018-07-09T08:38:24.571Z,20.99
2018-07-09T08:40:17.675Z,21.18
2018-07-09T08:41:17.577Z,21.09
2018-07-09T08:43:10.593Z,21.12
2018-07-09T08:44:10.540Z,21.11
2018-07-09T08:46:03.491Z,21.17
2018-07-09T08:47:03.455Z,21.22
2018-07-09T08:48:56.612Z,21.40
2018-07-09T08:49:56.547Z,21.48
2018-07-09T08:51:49.362Z,21.60
2018-07-09T08:52:49.360Z,21.73
2018-07-09T08:54:42.321Z,21.72
2018-07-09T08:55:42.309Z,21.73
2018-07-09T08:57:35.370Z,21.83
2018-07-09T08:58:35.353Z,21.91
2018-07-09T09:00:28.341Z,21.98
2018-07-09T09:01:28.277Z,21.93
2018-07-09T09:03:21.268Z,21.79
2018-07-09T09:04:21.237Z,21.89
2018-07-09T09:06:14.072Z,21.98
2018-07-09T09:07:14.042Z,22.06
2018-07-09T09:09:07.010Z,22.02
2018-07-09T09:10:06.989Z,22.06
2018-07-09T09:12:00.953Z,21.83
2018-07-09T09:13:00.920Z,21.69
2018-07-09T09:14:55.077Z,21.72
2018-07-09T09:15:54.999Z,21.70
2018-07-09T09:17:48.023Z,21.96
2018-07-09T09:18:48.006Z,22.00
2018-07-09T09:20:40.992Z,21.98
2018-07-09T09:21:40.993Z,22.22
2018-07-09T09:23:33.980Z,22.15
2018-07-09T09:24:33.929Z,22.20
2018-07-09T09:26:26.936Z,22.20
2018-07-09T09:27:26.868Z,22.18
2018-07-09T09:29:19.857Z,22.17
2018-07-09T09:30:19.827Z,22.30
2018-07-09T09:32:13.190Z,22.66
2018-07-09T09:33:13.139Z,22.84
2018-07-09T09:35:05.984Z,22.73
2018-07-09T09:36:05.919Z,22.91
2018-07-09T09:37:59.069Z,22.72
2018-07-09T09:38:59.038Z,22.78
2018-07-09T09:40:52.038Z,22.76
2018-07-09T09:41:51.999Z,22.75
2018-07-09T09:43:45.035Z,22.87
2018-07-09T09:44:44.988Z,22.98
2018-07-09T09:46:37.986Z,23.00
2018-07-09T09:47:37.934Z,23.18
2018-07-09T09:49:30.923Z,23.17
2018-07-09T09:50:30.882Z,23.23
2018-07-09T09:52:24.029Z,23.05
2018-07-09T09:53:23.974Z,23.20
2018-07-09T09:55:16.963Z,23.40
2018-07-09T09:56:16.907Z,23.31
2018-07-09T09:58:09.920Z,23.18
2018-07-09T09:59:09.869Z,23.17
2018-07-09T10:01:03.009Z,23.31
2018-07-09T10:02:02.969Z,23.43
2018-07-09T10:03:55.985Z,23.39
2018-07-09T10:04:55.930Z,23.37
2018-07-09T10:06:48.906Z,23.18
2018-07-09T10:07:48.889Z,23.34
2018-07-09T10:09:41.897Z,24.29
2018-07-09T10:10:41.861Z,24.81
2018-07-09T10:12:34.835Z,25.87
2018-07-09T10:13:34.889Z,26.43
2018-07-09T10:15:27.923Z,26.88
2018-07-09T10:16:27.872Z,27.32
2018-07-09T10:18:20.882Z,26.18
2018-07-09T10:19:20.854Z,26.55
2018-07-09T10:21:13.703Z,27.67
2018-07-09T10:22:13.663Z,28.02
2018-07-09T10:24:06.507Z,28.81
2018-07-09T10:25:06.480Z,29.13
2018-07-09T10:26:59.302Z,29.22
2018-07-09T10:27:59.274Z,29.16
2018-07-09T10:29:52.273Z,29.44
2018-07-09T10:30:52.253Z,29.51
2018-07-09T10:32:45.235Z,30.16
2018-07-09T10:33:45.215Z,30.70
2018-07-09T10:35:38.230Z,28.64
2018-07-09T10:36:38.196Z,28.37
2018-07-09T10:38:31.182Z,28.82
2018-07-09T10:39:31.175Z,29.35
2018-07-09T10:41:24.171Z,30.44
2018-07-09T10:42:24.137Z,31.00
2018-07-09T10:44:16.977Z,30.25
2018-07-09T10:45:16.960Z,31.05
2018-07-09T10:47:09.998Z,30.46
2018-07-09T10:48:09.952Z,30.32
2018-07-09T10:50:02.961Z,29.23
2018-07-09T10:51:02.921Z,28.02
2018-07-09T10:52:56.092Z,28.25
2018-07-09T10:53:56.076Z,28.96
2018-07-09T10:55:49.081Z,28.08
2018-07-09T10:56:49.032Z,28.04
2018-07-09T10:58:42.027Z,28.66
2018-07-09T10:59:42.012Z,29.35
2018-07-09T11:01:34.872Z,28.96
2018-07-09T11:02:34.830Z,28.85
2018-07-09T11:04:27.813Z,29.22
2018-07-09T11:05:27.786Z,29.57
2018-07-09T11:07:20.812Z,28.38
2018-07-09T11:08:20.757Z,29.26
2018-07-09T11:10:13.839Z,29.23
2018-07-09T11:11:13.817Z,29.63
2018-07-09T11:13:06.858Z,29.73
2018-07-09T11:14:06.887Z,30.00
2018-07-09T11:15:59.984Z,30.65
2018-07-09T11:16:59.928Z,29.79
2018-07-09T11:18:52.958Z,29.79
2018-07-09T11:19:52.898Z,29.51
2018-07-09T11:21:45.925Z,29.87
2018-07-09T11:22:45.872Z,29.91
2018-07-09T11:24:38.924Z,29.71
2018-07-09T11:25:38.901Z,29.79
2018-07-09T11:27:31.907Z,29.95
2018-07-09T11:28:31.972Z,29.31
2018-07-09T11:30:24.922Z,28.75
2018-07-09T11:31:24.900Z,28.81
2018-07-09T11:33:17.897Z,29.08
2018-07-09T11:34:17.843Z,29.19
2018-07-09T11:36:10.927Z,29.13
2018-07-09T11:37:10.861Z,29.01
2018-07-09T11:39:04.018Z,28.70
2018-07-09T11:40:03.944Z,28.25
2018-07-09T11:41:56.788Z,28.14
2018-07-09T11:42:56.754Z,28.00
2018-07-09T11:44:49.753Z,27.30
2018-07-09T11:45:49.704Z,27.26
2018-07-09T11:47:42.844Z,26.71
2018-07-09T11:48:42.810Z,26.78
2018-07-09T11:50:35.820Z,26.81
2018-07-09T11:51:35.773Z,25.85
2018-07-09T11:53:29.219Z,26.33
2018-07-09T11:54:28.735Z,26.44
2018-07-09T11:56:21.540Z,26.85
2018-07-09T11:57:21.518Z,26.80
2018-07-09T11:59:14.379Z,26.47
2018-07-09T12:00:14.330Z,26.48
2018-07-09T12:02:07.317Z,26.78
2018-07-09T12:03:07.301Z,27.25
2018-07-09T12:05:00.435Z,27.20
2018-07-09T12:06:00.370Z,27.12
2018-07-09T12:07:53.365Z,27.59
2018-07-09T12:08:53.325Z,27.58
2018-07-09T12:10:46.315Z,27.59
2018-07-09T12:11:46.289Z,27.27
2018-07-09T12:13:39.283Z,27.54
2018-07-09T12:14:39.229Z,27.37
2018-07-09T12:16:32.214Z,27.48
2018-07-09T12:17:32.191Z,27.51
2018-07-09T12:19:25.191Z,27.86
2018-07-09T12:20:25.146Z,27.86
2018-07-09T12:22:18.312Z,26.45
2018-07-09T12:23:18.246Z,26.58
2018-07-09T12:25:11.256Z,27.26
2018-07-09T12:26:11.225Z,27.83
2018-07-09T12:28:04.196Z,27.86
2018-07-09T12:29:04.209Z,28.30
2018-07-09T12:30:57.189Z,27.58
2018-07-09T12:31:57.152Z,27.65
2018-07-09T12:33:49.973Z,28.29
2018-07-09T12:34:49.959Z,28.70
2018-07-09T12:36:43.963Z,28.47
2018-07-09T12:37:43.930Z,27.86
2018-07-09T12:39:36.770Z,28.22
2018-07-09T12:40:36.762Z,28.60
2018-07-09T12:42:29.797Z,29.08
2018-07-09T12:43:29.747Z,29.29
2018-07-09T12:45:23.762Z,28.42
2018-07-09T12:46:23.721Z,28.04
2018-07-09T12:48:16.586Z,28.81
2018-07-09T12:49:16.546Z,28.86
2018-07-09T12:51:09.422Z,28.23
2018-07-09T12:52:09.371Z,27.85
2018-07-09T12:54:02.395Z,27.60
2018-07-09T12:55:02.353Z,27.60
2018-07-09T12:56:55.626Z,26.95
2018-07-09T12:57:55.504Z,26.65
2018-07-09T12:59:48.544Z,26.65
2018-07-09T13:00:48.527Z,26.93
2018-07-09T13:02:41.873Z,26.89
2018-07-09T13:03:41.808Z,26.84
2018-07-09T13:05:34.801Z,26.99
2018-07-09T13:07:47.839Z,26.88
2018-07-09T13:08:47.826Z,26.66
2018-07-09T13:10:40.792Z,27.32
2018-07-09T13:11:40.757Z,27.32
2018-07-09T13:13:33.807Z,27.65
2018-07-09T13:14:33.794Z,27.70
2018-07-09T13:16:26.625Z,28.02
2018-07-09T13:17:26.579Z,27.42
2018-07-09T13:19:19.596Z,27.08
2018-07-09T13:20:19.429Z,27.00
2018-07-09T13:22:12.467Z,26.89
2018-07-09T13:23:12.406Z,26.83
2018-07-09T13:25:05.417Z,26.66
2018-07-09T13:26:05.386Z,26.58
2018-07-09T13:27:58.503Z,27.05
2018-07-09T13:28:58.459Z,27.18
2018-07-09T13:30:51.459Z,27.45
2018-07-09T13:31:51.423Z,27.39
2018-07-09T13:33:44.721Z,26.83
2018-07-09T13:34:44.548Z,27.14
2018-07-09T13:36:37.535Z,27.48
2018-07-09T13:37:37.518Z,27.51
2018-07-09T13:39:30.513Z,27.60
2018-07-09T13:40:30.482Z,27.67
2018-07-09T13:42:23.554Z,27.70
2018-07-09T13:43:23.531Z,27.68
2018-07-09T13:45:16.524Z,26.95
2018-07-09T13:46:16.492Z,26.80
2018-07-09T13:48:09.458Z,27.12
2018-07-09T13:49:09.449Z,27.30
2018-07-09T13:51:02.457Z,27.00
2018-07-09T13:52:02.403Z,26.55
2018-07-09T13:53:55.414Z,26.65
2018-07-09T13:54:55.353Z,26.58
2018-07-09T13:56:48.533Z,26.95
2018-07-09T13:57:48.467Z,27.11
2018-07-09T13:59:41.915Z,26.93
2018-07-09T14:00:41.432Z,27.08
2018-07-09T14:02:34.393Z,26.96
2018-07-09T14:03:34.364Z,27.35
2018-07-09T14:05:27.214Z,27.49
2018-07-09T14:06:27.176Z,27.65
2018-07-09T14:08:20.159Z,27.89
2018-07-09T14:09:20.139Z,27.96
2018-07-09T14:11:12.980Z,28.17
2018-07-09T14:12:12.941Z,28.22
2018-07-09T14:14:05.922Z,27.83
2018-07-09T14:15:05.898Z,27.58
2018-07-09T14:16:58.822Z,27.85
2018-07-09T14:17:58.794Z,28.19
2018-07-09T14:19:51.799Z,28.22
2018-07-09T14:20:51.749Z,28.38
2018-07-09T14:22:44.584Z,28.51
2018-07-09T14:23:44.611Z,28.54
2018-07-09T14:25:37.404Z,28.30
2018-07-09T14:26:37.351Z,28.27
2018-07-09T14:28:30.203Z,28.37
2018-07-09T14:29:30.166Z,28.41
2018-07-09T14:31:23.071Z,28.26
2018-07-09T14:32:22.960Z,28.23
2018-07-09T14:34:16.110Z,27.78
2018-07-09T14:35:16.131Z,27.87
2018-07-09T14:37:09.305Z,27.83
2018-07-09T14:38:09.192Z,27.11
2018-07-09T14:40:02.180Z,26.55
2018-07-09T14:41:02.144Z,26.58
2018-07-09T14:42:55.141Z,26.70
2018-07-09T14:43:55.098Z,26.65
2018-07-09T14:45:47.951Z,26.77
2018-07-09T14:46:47.898Z,26.78
2018-07-09T14:48:40.940Z,27.05
2018-07-09T14:49:40.870Z,27.11
2018-07-09T14:51:33.759Z,27.42
2018-07-09T14:52:33.708Z,27.59
2018-07-09T14:54:26.676Z,27.75
2018-07-09T14:55:26.636Z,27.89
2018-07-09T14:57:19.703Z,27.96
2018-07-09T14:58:19.596Z,27.93
2018-07-09T15:00:12.578Z,27.73
2018-07-09T15:01:12.552Z,27.80
2018-07-09T15:03:05.567Z,27.22
2018-07-09T15:04:05.510Z,27.33
2018-07-09T15:05:58.354Z,27.44
2018-07-09T15:06:58.317Z,27.35
2018-07-09T15:08:51.326Z,27.29
2018-07-09T15:09:51.273Z,27.47
2018-07-09T15:11:44.281Z,27.60
2018-07-09T15:12:44.257Z,27.45
2018-07-09T15:14:37.106Z,27.59
2018-07-09T15:15:37.071Z,27.60
2018-07-09T15:17:30.046Z,27.30
2018-07-09T15:18:30.011Z,27.39
2018-07-09T15:20:22.999Z,27.48
2018-07-09T15:21:22.954Z,27.52
2018-07-09T15:23:16.112Z,27.30
2018-07-09T15:24:16.072Z,27.30
2018-07-09T15:26:09.088Z,27.18
2018-07-09T15:27:09.026Z,26.92
2018-07-09T15:29:02.023Z,26.84
2018-07-09T15:30:01.967Z,26.96
2018-07-09T15:31:54.804Z,26.53
2018-07-09T15:32:54.782Z,26.60
2018-07-09T15:34:47.767Z,26.23
2018-07-09T15:35:47.734Z,26.23
2018-07-09T15:37:40.739Z,26.44
2018-07-09T15:38:40.720Z,26.63
2018-07-09T15:40:33.889Z,26.41
2018-07-09T15:41:33.827Z,26.26
2018-07-09T15:43:26.858Z,26.43
2018-07-09T15:44:26.807Z,26.53
2018-07-09T15:46:19.808Z,26.38
2018-07-09T15:47:19.777Z,26.44
2018-07-09T15:49:12.932Z,26.43
2018-07-09T15:50:12.794Z,26.47
2018-07-09T15:52:05.612Z,26.36
2018-07-09T15:53:05.596Z,26.37
2018-07-09T15:54:58.632Z,26.44
2018-07-09T15:55:58.578Z,26.44
2018-07-09T15:57:51.918Z,26.26
2018-07-09T15:58:51.883Z,26.03
2018-07-09T16:00:44.898Z,25.96
2018-07-09T16:01:44.853Z,25.93
2018-07-09T16:03:37.672Z,26.02
2018-07-09T16:04:37.647Z,25.93
2018-07-09T16:06:30.665Z,26.03
2018-07-09T16:07:30.623Z,26.05
2018-07-09T16:09:23.601Z,26.05
2018-07-09T16:10:23.566Z,26.06
2018-07-09T16:12:16.410Z,25.95
2018-07-09T16:13:16.368Z,25.88
2018-07-09T16:15:09.392Z,25.88
2018-07-09T16:16:09.331Z,25.95
2018-07-09T16:18:02.356Z,25.96
2018-07-09T16:19:02.352Z,25.95
2018-07-09T16:20:55.509Z,25.77
2018-07-09T16:21:55.446Z,25.87
2018-07-09T16:23:48.428Z,25.93
2018-07-09T16:24:48.399Z,25.87
2018-07-09T16:26:41.395Z,25.75
2018-07-09T16:27:41.369Z,25.80
2018-07-09T16:29:34.346Z,25.65
2018-07-09T16:30:34.325Z,25.78
2018-07-09T16:32:27.329Z,25.87
2018-07-09T16:33:27.290Z,25.87
2018-07-09T16:35:20.305Z,25.93
2018-07-09T16:36:20.305Z,25.93
2018-07-09T16:38:13.329Z,25.80
2018-07-09T16:39:13.275Z,25.84
2018-07-09T16:41:06.105Z,25.75
2018-07-09T16:42:06.060Z,25.63
2018-07-09T16:43:59.060Z,25.69
2018-07-09T16:44:59.020Z,25.75
2018-07-09T16:46:52.093Z,25.68
2018-07-09T16:47:51.818Z,25.59
2018-07-09T16:49:44.811Z,25.63
2018-07-09T16:50:44.784Z,25.60
2018-07-09T16:52:37.889Z,25.62
2018-07-09T16:53:37.787Z,25.62
2018-07-09T16:55:31.242Z,25.46
2018-07-09T16:56:30.906Z,25.43
2018-07-09T16:58:24.882Z,25.40
2018-07-09T16:59:24.840Z,25.41
2018-07-09T17:01:17.835Z,25.32
2018-07-09T17:02:17.807Z,25.32
2018-07-09T17:04:10.697Z,25.08
2018-07-09T17:05:10.652Z,24.92
2018-07-09T17:07:03.652Z,25.14
2018-07-09T17:08:03.597Z,25.06
2018-07-09T17:09:56.612Z,25.18
2018-07-09T17:10:56.561Z,25.17
2018-07-09T17:12:49.498Z,25.16
2018-07-09T17:13:49.477Z,25.14
2018-07-09T17:15:42.510Z,25.08
2018-07-09T17:16:42.429Z,25.13
2018-07-09T17:18:35.422Z,25.03
2018-07-09T17:19:35.395Z,25.04
2018-07-09T17:21:28.233Z,24.74
2018-07-09T17:22:28.180Z,24.65
2018-07-09T17:24:21.342Z,24.73
2018-07-09T17:25:21.312Z,24.81
2018-07-09T17:27:14.433Z,24.74
2018-07-09T17:28:14.283Z,24.70
2018-07-09T17:30:07.147Z,24.69
2018-07-09T17:31:07.088Z,24.61
2018-07-09T17:33:00.073Z,24.69
2018-07-09T17:34:00.058Z,24.60
2018-07-09T17:35:52.897Z,24.70
2018-07-09T17:36:52.855Z,24.78
2018-07-09T17:38:45.853Z,24.76
2018-07-09T17:39:45.819Z,24.85
2018-07-09T17:41:38.697Z,24.74
2018-07-09T17:42:38.643Z,24.60
2018-07-09T17:44:31.597Z,24.68
2018-07-09T17:45:31.553Z,24.60
2018-07-09T17:47:24.566Z,24.60
2018-07-09T17:48:24.583Z,24.60
2018-07-09T17:50:17.731Z,24.60
2018-07-09T17:51:17.604Z,24.63
2018-07-09T17:53:10.622Z,24.58
2018-07-09T17:54:10.562Z,24.68
2018-07-09T17:56:03.533Z,24.74
2018-07-09T17:57:03.509Z,24.73
2018-07-09T17:58:56.359Z,24.60
2018-07-09T17:59:56.311Z,24.54
2018-07-09T18:01:49.293Z,24.55
2018-07-09T18:02:49.274Z,24.53
2018-07-09T18:04:42.128Z,24.57
2018-07-09T18:05:42.080Z,24.57
2018-07-09T18:07:35.064Z,24.51
2018-07-09T18:08:35.047Z,24.55
2018-07-09T18:10:27.934Z,24.38
2018-07-09T18:11:27.835Z,24.40
2018-07-09T18:13:20.808Z,24.39
2018-07-09T18:14:20.779Z,24.38
2018-07-09T18:16:13.794Z,24.18
2018-07-09T18:17:13.733Z,24.23
2018-07-09T18:19:06.936Z,24.21
2018-07-09T18:20:06.848Z,24.18
2018-07-09T18:21:59.835Z,24.16
2018-07-09T18:22:59.818Z,24.18
2018-07-09T18:24:53.089Z,24.17
2018-07-09T18:25:52.969Z,24.13
2018-07-09T18:27:45.953Z,24.11
2018-07-09T18:28:45.917Z,24.06
2018-07-09T18:30:38.906Z,24.02
2018-07-09T18:31:38.864Z,24.02
2018-07-09T18:33:31.993Z,23.95
2018-07-09T18:34:31.956Z,23.95
2018-07-09T18:36:24.964Z,23.87